createdAt,value
2023-05-20T00:04:01.871Z,101240.13
2023-05-20T00:09:04.317Z,101240.89
2023-05-20T00:14:06.821Z,101237.05
2023-05-20T00:19:09.683Z,101237.30
2023-05-20T00:24:11.979Z,101235.33
2023-05-20T00:29:14.159Z,101232.73
2023-05-20T00:34:16.348Z,101235.70
2023-05-20T00:39:18.626Z,101230.08
2023-05-20T00:44:23.678Z,101227.83
2023-05-20T00:49:26.169Z,101226.23
2023-05-20T00:54:28.385Z,101228.35
2023-05-20T00:59:31.057Z,101220.76
2023-05-20T01:04:33.639Z,101221.40
2023-05-20T01:09:36.337Z,101215.43
2023-05-20T01:14:56.440Z,101211.50
2023-05-20T01:20:01.138Z,101211.05
2023-05-20T01:25:03.987Z,101214.24
2023-05-20T01:30:07.615Z,101211.31
2023-05-20T01:35:10.607Z,101211.40
2023-05-20T01:40:16.045Z,101208.36
2023-05-20T01:45:18.969Z,101213.65
2023-05-20T01:50:21.358Z,101214.55
2023-05-20T01:55:24.568Z,101218.88
2023-05-20T02:00:26.954Z,101221.77
2023-05-20T02:05:30.289Z,101214.45
2023-05-20T02:10:32.568Z,101213.15
2023-05-20T02:15:34.990Z,101218.36
2023-05-20T02:20:37.536Z,101221.27
2023-05-20T02:25:40.962Z,101220.45
2023-05-20T02:30:43.039Z,101214.09
2023-05-20T02:35:45.632Z,101215.32
2023-05-20T02:40:47.814Z,101210.11
2023-05-20T02:45:50.018Z,101207.95
2023-05-20T02:50:52.796Z,101208.22
2023-05-20T02:55:55.011Z,101197.38
2023-05-20T03:00:58.344Z,101200.70
2023-05-20T03:06:00.793Z,101200.77
2023-05-20T03:11:04.712Z,101198.14
2023-05-20T03:16:07.036Z,101202.59
2023-05-20T03:21:09.388Z,101205.67
2023-05-20T03:26:11.776Z,101205.95
2023-05-20T03:31:14.106Z,101209.34
2023-05-20T03:36:16.447Z,101212.12
2023-05-20T03:41:18.647Z,101213.98
2023-05-20T03:46:20.987Z,101214.79
2023-05-20T03:51:23.222Z,101221.27
2023-05-20T03:56:26.113Z,101226.19
2023-05-20T04:01:28.495Z,101226.42
2023-05-20T04:06:31.201Z,101225.27
2023-05-20T04:11:33.375Z,101228.30
2023-05-20T04:16:37.111Z,101227.42
2023-05-20T04:21:39.382Z,101229.17
2023-05-20T04:26:41.426Z,101225.33
2023-05-20T04:31:45.344Z,101227.01
2023-05-20T04:36:48.698Z,101223.96
2023-05-20T04:41:54.366Z,101221.68
2023-05-20T04:46:59.678Z,101220.17
2023-05-20T04:52:02.318Z,101217.77
2023-05-20T04:57:04.819Z,101221.25
2023-05-20T05:02:06.950Z,101222.27
2023-05-20T05:07:09.028Z,101218.64
2023-05-20T05:12:11.160Z,101219.20
2023-05-20T05:17:13.347Z,101219.98
2023-05-20T05:22:15.530Z,101216.41
2023-05-20T05:27:17.816Z,101213.27
2023-05-20T05:32:20.212Z,101211.05
2023-05-20T05:37:22.942Z,101211.70
2023-05-20T05:42:25.393Z,101212.97
2023-05-20T05:47:32.105Z,101211.39
2023-05-20T05:52:34.275Z,101215.13
2023-05-20T05:57:36.458Z,101218.45
2023-05-20T06:02:38.967Z,101217.26
2023-05-20T06:07:41.645Z,101220.66
2023-05-20T06:12:48.748Z,101223.58
2023-05-20T06:17:54.155Z,101221.41
2023-05-20T06:22:57.724Z,101223.83
2023-05-20T06:28:00.194Z,101217.14
2023-05-20T06:33:02.433Z,101214.75
2023-05-20T06:38:04.775Z,101213.36
2023-05-20T06:43:07.076Z,101217.30
2023-05-20T06:48:09.903Z,101221.61
2023-05-20T06:53:12.051Z,101221.83
2023-05-20T06:58:14.234Z,101219.75
2023-05-20T07:03:16.664Z,101218.14
2023-05-20T07:08:19.059Z,101217.37
2023-05-20T07:13:23.579Z,101213.84
2023-05-20T07:18:25.715Z,101213.26
2023-05-20T07:23:27.735Z,101213.33
2023-05-20T07:28:30.368Z,101213.63
2023-05-20T07:33:32.440Z,101218.37
2023-05-20T07:38:34.510Z,101217.02
2023-05-20T07:43:36.514Z,101219.44
2023-05-20T07:48:38.568Z,101215.87
2023-05-20T07:53:40.692Z,101212.54
2023-05-20T07:58:42.930Z,101214.26
2023-05-20T08:03:45.083Z,101221.77
2023-05-20T08:08:47.454Z,101221.11
2023-05-20T08:13:50.064Z,101216.59
2023-05-20T08:18:52.192Z,101211.23
2023-05-20T08:23:54.888Z,101209.66
2023-05-20T08:28:56.935Z,101207.93
2023-05-20T08:33:59.060Z,101207.43
2023-05-20T08:39:01.377Z,101203.64
2023-05-20T08:44:04.921Z,101206.27
2023-05-20T08:49:07.292Z,101204.36
2023-05-20T08:54:11.567Z,101210.91
2023-05-20T08:59:13.638Z,101216.23
2023-05-20T09:04:15.726Z,101217.11
2023-05-20T09:09:17.762Z,101218.59
2023-05-20T09:14:20.630Z,101221.80
2023-05-20T09:19:24.537Z,101217.39
2023-05-20T09:24:26.998Z,101215.66
2023-05-20T09:29:33.311Z,101213.56
2023-05-20T09:34:35.606Z,101212.57
2023-05-20T09:39:49.070Z,101213.19
2023-05-20T09:44:51.762Z,101210.14
2023-05-20T09:49:53.913Z,101208.27
2023-05-20T09:54:57.128Z,101206.82
2023-05-20T09:59:59.213Z,101205.83
2023-05-20T10:05:10.749Z,101205.30
2023-05-20T10:10:31.524Z,101203.42
2023-05-20T10:15:42.380Z,101205.92
2023-05-20T10:20:48.378Z,101201.42
2023-05-20T10:25:55.375Z,101199.73
2023-05-20T10:30:58.740Z,101192.50
2023-05-20T10:36:00.783Z,101189.30
2023-05-20T10:41:12.507Z,101191.40
2023-05-20T10:46:31.157Z,101183.98
2023-05-20T10:52:01.601Z,101180.39
2023-05-20T10:57:08.915Z,101175.84
2023-05-20T11:02:13.995Z,101171.00
2023-05-20T11:07:29.090Z,101168.29
2023-05-20T11:12:32.562Z,101168.20
2023-05-20T11:17:34.642Z,101164.14
2023-05-20T11:22:36.820Z,101153.02
2023-05-20T11:27:39.420Z,101143.28
2023-05-20T11:32:41.882Z,101131.36
2023-05-20T11:37:43.947Z,101130.30
2023-05-20T11:42:45.935Z,101119.98
2023-05-20T11:48:02.562Z,101117.94
2023-05-20T11:53:05.958Z,101119.17
2023-05-20T11:58:07.941Z,101121.04
2023-05-20T12:03:10.833Z,101123.81
2023-05-20T12:08:13.024Z,101128.16
2023-05-20T12:13:15.076Z,101122.19
2023-05-20T12:18:17.494Z,101120.69
2023-05-20T12:23:20.083Z,101120.23
2023-05-20T12:28:21.974Z,101117.38
2023-05-20T12:33:24.215Z,101118.11
2023-05-20T12:38:27.602Z,101110.45
2023-05-20T12:43:30.037Z,101105.77
2023-05-20T12:48:32.834Z,101103.04
2023-05-20T12:53:35.003Z,101103.05
2023-05-20T12:58:37.777Z,101094.05
2023-05-20T13:03:40.259Z,101087.90
2023-05-20T13:08:44.846Z,101079.80
2023-05-20T13:13:47.018Z,101076.21
2023-05-20T13:18:49.861Z,101072.19
2023-05-20T13:24:05.413Z,101075.80
2023-05-20T13:29:09.841Z,101072.55
2023-05-20T13:34:12.336Z,101068.52
2023-05-20T13:39:15.668Z,101058.69
2023-05-20T13:44:18.215Z,101048.73
2023-05-20T13:49:22.801Z,101043.73
2023-05-20T13:54:26.749Z,101032.91
2023-05-20T13:59:32.253Z,101035.23
2023-05-20T14:04:40.349Z,101030.40
2023-05-20T14:09:44.817Z,101032.90
2023-05-20T14:14:48.756Z,101029.80
2023-05-20T14:19:52.764Z,101033.73
2023-05-20T14:24:56.801Z,101033.23
2023-05-20T14:30:00.903Z,101033.96
2023-05-20T14:35:05.802Z,101035.91
2023-05-20T14:40:09.751Z,101033.81
2023-05-20T14:45:13.785Z,101023.35
2023-05-20T14:59:33.059Z,101018.23
2023-05-20T15:04:36.404Z,101015.46
2023-05-20T15:09:39.798Z,101016.79
2023-05-20T15:14:43.204Z,101009.04
2023-05-20T15:19:46.573Z,100999.20
2023-05-20T15:24:49.982Z,100995.17
2023-05-20T15:29:53.336Z,100999.80
2023-05-20T15:34:56.607Z,100997.48
2023-05-20T15:39:59.967Z,100980.75
2023-05-20T15:45:03.580Z,100961.51
2023-05-20T15:50:08.832Z,100951.98
2023-05-20T15:55:12.462Z,100950.15
2023-05-20T16:00:19.635Z,100943.41
2023-05-20T16:05:25.844Z,100946.25
2023-05-20T16:10:33.033Z,100945.89
2023-05-20T16:15:38.781Z,100942.82
2023-05-20T16:20:42.426Z,100934.81
2023-05-20T16:25:46.351Z,100933.78
2023-05-20T16:30:49.862Z,100924.73
2023-05-20T16:35:53.488Z,100921.35
2023-05-20T16:40:57.310Z,100920.02
2023-05-20T16:46:01.144Z,100921.61
2023-05-20T16:51:04.847Z,100923.34
2023-05-20T16:56:08.872Z,100918.59
2023-05-20T17:01:12.566Z,100917.44
2023-05-20T17:06:16.122Z,100917.70
2023-05-20T17:11:19.629Z,100917.79
2023-05-20T17:16:23.305Z,100918.80
2023-05-20T17:21:26.761Z,100926.83
2023-05-20T17:26:30.486Z,100930.05
2023-05-20T17:31:34.329Z,100927.52
2023-05-20T17:36:38.228Z,100924.46
2023-05-20T17:41:43.416Z,100934.24
2023-05-20T17:46:47.279Z,100932.86
2023-05-20T17:51:50.736Z,100932.70
2023-05-20T17:56:54.256Z,100931.48
2023-05-20T18:01:58.684Z,100937.93
2023-05-20T18:07:04.240Z,100928.11
2023-05-20T18:12:09.051Z,100923.52
2023-05-20T18:17:12.602Z,100924.31
2023-05-20T18:22:16.732Z,100922.95
2023-05-20T18:27:20.159Z,100927.56
2023-05-20T18:32:28.078Z,100928.09
2023-05-20T18:37:31.780Z,100927.16
2023-05-20T18:42:35.261Z,100925.70
2023-05-20T18:47:39.049Z,100927.90
2023-05-20T18:52:42.632Z,100927.20
2023-05-20T18:57:46.249Z,100933.02
2023-05-20T19:02:49.878Z,100937.55
2023-05-20T19:07:53.690Z,100937.20
2023-05-20T19:12:57.206Z,100934.66
2023-05-20T19:18:00.872Z,100930.05
2023-05-20T19:23:04.233Z,100917.40
2023-05-20T19:28:07.752Z,100913.16
2023-05-20T19:33:11.194Z,100915.08
2023-05-20T19:38:14.686Z,100915.61
2023-05-20T19:43:18.299Z,100916.54
2023-05-20T19:48:22.470Z,100915.23
2023-05-20T19:53:26.327Z,100918.80
2023-05-20T19:58:29.866Z,100916.30
2023-05-20T20:03:34.416Z,100912.08
2023-05-20T20:08:39.767Z,100912.51
2023-05-20T20:13:43.388Z,100917.30
2023-05-20T20:18:46.919Z,100919.44
2023-05-20T20:23:50.422Z,100917.54
2023-05-20T20:28:53.939Z,100920.21
2023-05-20T20:33:57.707Z,100915.53
2023-05-20T20:39:07.573Z,100918.45
2023-05-20T20:44:16.369Z,100922.70
2023-05-20T20:49:20.697Z,100923.73
2023-05-20T20:54:24.163Z,100921.92
2023-05-20T20:59:27.829Z,100923.84
2023-05-20T21:04:31.493Z,100925.30
2023-05-20T21:09:35.884Z,100925.38
2023-05-20T21:14:39.295Z,100930.91
2023-05-20T21:19:42.762Z,100930.83
2023-05-20T21:24:46.338Z,100933.58
2023-05-20T21:29:51.029Z,100935.44
2023-05-20T21:34:56.272Z,100930.96
2023-05-20T21:40:00.956Z,100928.64
2023-05-20T21:45:05.308Z,100927.88
2023-05-20T21:50:09.232Z,100925.06
2023-05-20T21:55:12.539Z,100922.10
2023-05-20T22:00:19.044Z,100918.56
2023-05-20T22:05:22.651Z,100916.09
2023-05-20T22:10:27.292Z,100915.86
2023-05-20T22:15:31.618Z,100913.73
2023-05-20T22:20:35.034Z,100918.03
2023-05-20T22:25:38.548Z,100914.83
2023-05-20T22:30:42.333Z,100919.87
2023-05-20T22:35:46.355Z,100913.61
2023-05-20T22:40:49.610Z,100908.90
2023-05-20T22:45:53.035Z,100910.36
2023-05-20T22:50:56.637Z,100910.35
2023-05-20T22:56:00.209Z,100914.79
2023-05-20T23:01:03.760Z,100915.79
2023-05-20T23:06:07.396Z,100914.30
2023-05-20T23:11:11.326Z,100913.45
2023-05-20T23:16:14.858Z,100913.41
2023-05-20T23:21:19.787Z,100917.09
2023-05-20T23:26:24.441Z,100917.50
2023-05-20T23:31:30.229Z,100914.23
2023-05-20T23:36:37.599Z,100913.10
2023-05-20T23:41:41.323Z,100919.52
2023-05-20T23:46:45.294Z,100922.08
2023-05-20T23:51:48.755Z,100913.70
2023-05-20T23:56:52.941Z,100914.77
